Zhambyl, Kazakhstan
Current Conditions -  °F | °C
As of 4:30 PM on Tuesday 27 Jan 2015 (Local Time) from UADD Reporting Station
Haze Haze  
Wind Chill:   Ceiling: Unl
Heat Index: 10°   Visibility: 3mi
Dew Point:   Wind: 4mph
Humidity: 73%   Direction: 320°NW
Pressure: 30.42"   Gusts: NA
Location:  42.85°N, 71.38°E
Report Text: UADD 271030Z 32002MPS 5000 BR NSC M12/M16 Q1030 NOSIG RMKQFE715/0953
Loading
Personal Weather Stations






























Interactive Weather Map New forecast layout! Learn more

10-Day Weather Forecast

Advertisements
Track Severe Weather on mobile